Главная страница
METAR-TAF:

METAR-TAF

Аэропорты :

Запорожье, Украина

широта: 47-52-02N, долгота: 035-18-59E, высота над уровнем моря: 114 м

Текущие метеонаблюдения

Эта сводка был подготовлена 19 минут назад, в 17:30 UTC
Ветер 16 Узел от северо-западный
Температура 13°C
Влажность 35%
Давление 1009 hPa
Видимость 10 км и более
Нет облачности ниже 1500 м, и нет кучево-дождевой облачности

METAR: UKDE 281730Z 31008MPS CAVOK 13/M02 Q1009 R20/////// TEMPO 32006G11MPS

Время: 20:49 (17:49 UTC)

Прогноз

Эта сводка был подготовлена 44 минут назад, в 17:05 UTC
Прогноз действительный с 28-го 18 UTC до 29-го 03 UTC
Ветер 10 Узел от северо-западный
Видимость 10 км и более
Отдельные облака на высоте 3000 фута
временами
С 28-го 18 UTC до 28-го 24 UTC
Ветер 12 Узел от северно-северо-западный с порывами до 21 Узел

TAF: UKDE 281705Z 2818/2903 31005MPS 9999 SCT030 TEMPO 2818/2824 33006G11MPS TX11/2818Z TN03/2903Z

Метеонаблюдения и прогнозы для более 4000 аэропортов (сводки METAR и TAF).

Имеющиеся станции представлены на карте желтыми и красными точками.

Чтобы увидеть название станции, наведите на нее мышь.

Затем щелкните, чтобы увидеть метеонаблюдения и метеопрогнозы.

Управление картой: чтобы увеличить масштаб, щелкните зеленые кнопки с черным крестиком; чтобы уменьшить масштаб, щелкните зеленую кнопку с тире; для просмотра соседних карт щелкайте зеленые стрелки.


METAR-TAF: